Time,TemperatureF,DewpointF,PressureIn,WindDirection,WindDirectionDegrees,WindSpeedMPH,WindSpeedGustMPH,Humidity,HourlyPrecipIn,Conditions,Clouds,dailyrainin,SoftwareType,DateUTC
2013-02-03 00:11:00,31.8,31.3,29.76,WNW,292,0.0,-999.0,98,-99.99,,,0.00,Acu-Link.com,2013-02-03 05:11:00,
2013-02-03 00:26:00,31.8,31.3,29.74,NNE,22,0.0,-999.0,98,-99.99,,,0.00,Acu-Link.com,2013-02-03 05:26:00,
2013-02-03 00:41:00,31.6,31.1,29.74,NNE,22,0.0,-999.0,98,-99.99,,,0.00,Acu-Link.com,2013-02-03 05:41:00,
2013-02-03 00:57:00,31.6,31.1,29.72,South,180,0.0,-999.0,98,-99.99,,,0.00,Acu-Link.com,2013-02-03 05:57:00,
2013-02-03 01:12:00,31.6,31.1,29.72,SE,135,0.0,-999.0,98,-99.99,,,0.00,Acu-Link.com,2013-02-03 06:12:00,
2013-02-03 01:28:00,31.6,31.1,29.72,ESE,112,0.0,-999.0,98,-99.99,,,0.00,Acu-Link.com,2013-02-03 06:28:00,
2013-02-03 01:43:00,31.8,31.3,29.72,WSW,247,0.0,-999.0,98,-99.99,,,0.00,Acu-Link.com,2013-02-03 06:43:00,
2013-02-03 01:58:00,31.8,31.3,29.71,WSW,247,0.0,-999.0,98,-99.99,,,0.00,Acu-Link.com,2013-02-03 06:58:00,
2013-02-03 02:14:00,31.8,31.3,29.70,ENE,67,0.0,-999.0,98,-99.99,,,0.00,Acu-Link.com,2013-02-03 07:14:00,
2013-02-03 02:29:00,31.6,31.1,29.70,SSW,202,1.7,-999.0,98,-99.99,,,0.00,Acu-Link.com,2013-02-03 07:29:00,
2013-02-03 02:44:00,31.6,31.1,29.70,NNW,337,0.0,-999.0,98,-99.99,,,0.00,Acu-Link.com,2013-02-03 07:44:00,
2013-02-03 03:00:00,31.6,31.1,29.70,NNW,337,0.0,-999.0,98,-99.99,,,0.00,Acu-Link.com,2013-02-03 08:00:00,
2013-02-03 03:15:00,31.6,31.1,29.69,WSW,247,1.7,-999.0,98,-99.99,,,0.00,Acu-Link.com,2013-02-03 08:15:00,
2013-02-03 03:30:00,31.5,31.0,29.68,West,270,0.0,-999.0,98,-99.99,,,0.00,Acu-Link.com,2013-02-03 08:30:00,
2013-02-03 03:46:00,31.5,31.0,29.67,South,180,0.0,-999.0,98,-99.99,,,0.00,Acu-Link.com,2013-02-03 08:46:00,
2013-02-03 04:01:00,31.5,31.0,29.67,South,180,0.0,-999.0,98,-99.99,,,0.00,Acu-Link.com,2013-02-03 09:01:00,
2013-02-03 04:16:00,30.9,30.4,29.67,West,270,0.0,-999.0,98,-99.99,,,0.00,Acu-Link.com,2013-02-03 09:16:00,
2013-02-03 04:31:00,32.2,31.7,29.66,West,270,3.7,-999.0,98,-99.99,,,0.00,Acu-Link.com,2013-02-03 09:31:00,
2013-02-03 04:47:00,32.4,31.9,29.66,WSW,247,2.7,-999.0,98,-99.99,,,0.00,Acu-Link.com,2013-02-03 09:47:00,
2013-02-03 05:02:00,33.6,33.1,29.67,SW,225,3.7,-999.0,98,-99.99,,,0.00,Acu-Link.com,2013-02-03 10:02:00,
2013-02-03 05:17:00,34.0,33.5,29.66,SSW,202,2.2,-999.0,98,-99.99,,,0.00,Acu-Link.com,2013-02-03 10:17:00,
2013-02-03 05:33:00,34.0,33.5,29.67,SSW,202,0.0,-999.0,98,-99.99,,,0.00,Acu-Link.com,2013-02-03 10:33:00,
2013-02-03 05:48:00,33.8,33.3,29.67,SW,225,0.0,-999.0,98,-99.99,,,0.00,Acu-Link.com,2013-02-03 10:48:00,
2013-02-03 06:03:00,33.6,33.1,29.68,WSW,247,1.7,-999.0,98,-99.99,,,0.00,Acu-Link.com,2013-02-03 11:03:00,
2013-02-03 06:19:00,33.6,33.1,29.68,SW,225,2.2,-999.0,98,-99.99,,,0.00,Acu-Link.com,2013-02-03 11:19:00,
2013-02-03 06:34:00,34.2,33.7,29.68,West,270,5.3,-999.0,98,-99.99,,,0.00,Acu-Link.com,2013-02-03 11:34:00,
2013-02-03 06:49:00,34.0,33.5,29.69,SW,225,3.2,-999.0,98,-99.99,,,0.00,Acu-Link.com,2013-02-03 11:49:00,
2013-02-03 07:04:00,33.8,33.3,29.68,SSW,202,1.1,-999.0,98,-99.99,,,0.00,Acu-Link.com,2013-02-03 12:04:00,
2013-02-03 07:20:00,33.3,32.8,29.68,West,270,0.0,-999.0,98,-99.99,,,0.00,Acu-Link.com,2013-02-03 12:20:00,
2013-02-03 07:35:00,32.4,31.9,29.68,SSW,202,2.7,-999.0,98,-99.99,,,0.00,Acu-Link.com,2013-02-03 12:35:00,
2013-02-03 07:50:00,31.6,31.1,29.67,SSW,202,3.2,-999.0,98,-99.99,,,0.00,Acu-Link.com,2013-02-03 12:50:00,
2013-02-03 08:05:00,32.5,32.0,29.68,WSW,247,2.7,-999.0,98,-99.99,,,0.00,Acu-Link.com,2013-02-03 13:05:00,
2013-02-03 08:21:00,34.0,33.5,29.68,SW,225,3.7,-999.0,98,-99.99,,,0.00,Acu-Link.com,2013-02-03 13:21:00,
2013-02-03 08:36:00,34.9,34.4,29.69,WSW,247,3.2,-999.0,98,-99.99,,,0.00,Acu-Link.com,2013-02-03 13:36:00,
2013-02-03 08:51:00,36.1,35.3,29.68,West,270,1.1,-999.0,97,-99.99,,,0.00,Acu-Link.com,2013-02-03 13:51:00,
2013-02-03 09:07:00,38.1,37.1,29.67,SE,135,4.2,-999.0,96,-99.99,,,0.00,Acu-Link.com,2013-02-03 14:07:00,
2013-02-03 09:22:00,39.6,38.0,29.67,South,180,4.2,-999.0,94,-99.99,,,0.00,Acu-Link.com,2013-02-03 14:22:00,
2013-02-03 09:37:00,40.6,38.7,29.67,SSW,202,4.7,-999.0,93,-99.99,,,0.00,Acu-Link.com,2013-02-03 14:37:00,
2013-02-03 09:52:00,41.7,39.3,29.67,WNW,292,8.3,-999.0,91,-99.99,,,0.00,Acu-Link.com,2013-02-03 14:52:00,
2013-02-03 10:07:00,42.1,39.1,29.67,SW,225,8.9,-999.0,89,-99.99,,,0.00,Acu-Link.com,2013-02-03 15:07:00,
2013-02-03 10:23:00,44.1,40.8,29.67,SW,225,4.2,-999.0,88,-99.99,,,0.00,Acu-Link.com,2013-02-03 15:23:00,
2013-02-03 10:38:00,45.0,42.0,29.67,SSE,157,5.8,-999.0,89,-99.99,,,0.00,Acu-Link.com,2013-02-03 15:38:00,
2013-02-03 10:53:00,43.0,40.6,29.67,West,270,4.7,-999.0,91,-99.99,,,0.00,Acu-Link.com,2013-02-03 15:53:00,
2013-02-03 11:09:00,43.7,41.0,29.66,SSW,202,8.3,-999.0,90,-99.99,,,0.00,Acu-Link.com,2013-02-03 16:09:00,
2013-02-03 11:24:00,44.8,41.8,29.66,West,270,7.3,-999.0,89,-99.99,,,0.00,Acu-Link.com,2013-02-03 16:24:00,
2013-02-03 11:39:00,44.1,40.8,29.64,NNW,337,7.3,-999.0,88,-99.99,,,0.00,Acu-Link.com,2013-02-03 16:39:00,
2013-02-03 11:55:00,45.1,41.8,29.63,SSW,202,4.7,-999.0,88,-99.99,,,0.00,Acu-Link.com,2013-02-03 16:55:00,
2013-02-03 12:10:00,46.0,42.1,29.62,WNW,292,3.7,-999.0,86,-99.99,,,0.00,Acu-Link.com,2013-02-03 17:10:00,
2013-02-03 12:25:00,44.2,41.2,29.61,WSW,247,8.9,-999.0,89,-99.99,,,0.00,Acu-Link.com,2013-02-03 17:25:00,
2013-02-03 12:40:00,43.9,40.6,29.60,SSW,202,5.3,-999.0,88,-99.99,,,0.00,Acu-Link.com,2013-02-03 17:40:00,
2013-02-03 12:56:00,43.5,40.5,29.59,SW,225,6.8,-999.0,89,-99.99,,,0.00,Acu-Link.com,2013-02-03 17:56:00,
2013-02-03 13:11:00,43.5,40.5,29.60,South,180,6.8,-999.0,89,-99.99,,,0.00,Acu-Link.com,2013-02-03 18:11:00,
2013-02-03 13:27:00,44.2,41.2,29.59,SW,225,3.2,-999.0,89,-99.99,,,0.00,Acu-Link.com,2013-02-03 18:27:00,
2013-02-03 13:42:00,45.1,42.1,29.59,SSW,202,11.9,-999.0,89,-99.99,,,0.00,Acu-Link.com,2013-02-03 18:42:00,
2013-02-03 13:57:00,43.7,41.0,29.59,SSW,202,7.8,-999.0,90,-99.99,,,0.00,Acu-Link.com,2013-02-03 18:57:00,
2013-02-03 14:12:00,45.7,42.1,29.58,West,270,6.3,-999.0,87,-99.99,,,0.00,Acu-Link.com,2013-02-03 19:12:00,
2013-02-03 14:27:00,43.3,40.3,29.60,SSW,202,7.8,-999.0,89,-99.99,,,0.00,Acu-Link.com,2013-02-03 19:27:00,
2013-02-03 14:43:00,43.9,41.4,29.58,West,270,5.8,-999.0,91,-99.99,,,0.00,Acu-Link.com,2013-02-03 19:43:00,
2013-02-03 14:58:00,43.0,40.0,29.58,South,180,3.2,-999.0,89,-99.99,,,0.00,Acu-Link.com,2013-02-03 19:58:00,
2013-02-03 15:13:00,45.0,41.4,29.59,SSW,202,3.2,-999.0,87,-99.99,,,0.00,Acu-Link.com,2013-02-03 20:13:00,
2013-02-03 15:29:00,43.0,39.7,29.59,SSW,202,4.2,-999.0,88,-99.99,,,0.00,Acu-Link.com,2013-02-03 20:29:00,
2013-02-03 15:44:00,43.3,41.4,29.60,WNW,292,3.2,-999.0,93,-99.99,,,0.00,Acu-Link.com,2013-02-03 20:44:00,
2013-02-03 15:59:00,43.5,41.1,29.60,NNW,337,2.2,-999.0,91,-99.99,,,0.00,Acu-Link.com,2013-02-03 20:59:00,
2013-02-03 16:15:00,43.0,41.4,29.61,SSW,202,5.8,-999.0,94,-99.99,,,0.00,Acu-Link.com,2013-02-03 21:15:00,
2013-02-03 16:30:00,42.1,39.9,29.60,WSW,247,5.8,-999.0,92,-99.99,,,0.00,Acu-Link.com,2013-02-03 21:30:00,
2013-02-03 16:45:00,41.4,39.3,29.63,SW,225,2.7,-999.0,92,-99.99,,,0.00,Acu-Link.com,2013-02-03 21:45:00,
2013-02-03 17:01:00,41.0,38.9,29.64,SSE,157,4.2,-999.0,92,-99.99,,,0.00,Acu-Link.com,2013-02-03 22:01:00,
2013-02-03 17:16:00,39.9,38.6,29.64,West,270,5.3,-999.0,95,-99.99,,,0.00,Acu-Link.com,2013-02-03 22:16:00,
2013-02-03 17:31:00,39.2,38.7,29.64,South,180,2.7,-999.0,98,-99.99,,,0.00,Acu-Link.com,2013-02-03 22:31:00,
2013-02-03 17:47:00,38.8,38.3,29.65,West,270,4.7,-999.0,98,-99.99,,,0.00,Acu-Link.com,2013-02-03 22:47:00,
2013-02-03 18:02:00,38.3,37.8,29.66,SW,225,4.2,-999.0,98,-99.99,,,0.00,Acu-Link.com,2013-02-03 23:02:00,
2013-02-03 18:17:00,37.8,37.3,29.66,West,270,3.2,-999.0,98,-99.99,,,0.00,Acu-Link.com,2013-02-03 23:17:00,
2013-02-03 18:32:00,37.0,36.5,29.68,West,270,3.7,-999.0,98,-99.99,,,0.00,Acu-Link.com,2013-02-03 23:32:00,
2013-02-03 18:48:00,36.7,36.2,29.68,SSW,202,5.3,-999.0,98,-99.99,,,0.00,Acu-Link.com,2013-02-03 23:48:00,
2013-02-03 19:18:00,37.2,34.3,29.68,WSW,247,4.7,-999.0,89,-99.99,,,0.00,Acu-Link.com,2013-02-04 00:18:00,
2013-02-03 19:34:00,37.4,34.7,29.68,SSW,202,3.7,-999.0,90,-99.99,,,0.00,Acu-Link.com,2013-02-04 00:34:00,
2013-02-03 19:49:00,37.8,33.1,29.68,SSW,202,2.7,-999.0,83,-99.99,,,0.00,Acu-Link.com,2013-02-04 00:49:00,
2013-02-03 20:04:00,37.8,33.7,29.70,WSW,247,5.3,-999.0,85,-99.99,,,0.00,Acu-Link.com,2013-02-04 01:04:00,
2013-02-03 20:20:00,37.8,34.0,29.70,WNW,292,9.9,-999.0,86,-99.99,,,0.00,Acu-Link.com,2013-02-04 01:20:00,
2013-02-03 20:35:00,37.8,33.7,29.71,West,270,3.7,-999.0,85,-99.99,,,0.00,Acu-Link.com,2013-02-04 01:35:00,
2013-02-03 20:50:00,37.4,33.9,29.70,SSW,202,3.7,-999.0,87,-99.99,,,0.00,Acu-Link.com,2013-02-04 01:50:00,
2013-02-03 21:05:00,37.0,35.4,29.72,WSW,247,7.8,-999.0,94,-99.99,,,0.00,Acu-Link.com,2013-02-04 02:05:00,
2013-02-03 21:20:00,36.5,35.7,29.72,SW,225,4.2,-999.0,97,-99.99,,,0.00,Acu-Link.com,2013-02-04 02:20:00,
2013-02-03 21:36:00,36.1,34.5,29.71,SW,225,3.7,-999.0,94,-99.99,,,0.00,Acu-Link.com,2013-02-04 02:36:00,
2013-02-03 21:51:00,35.8,33.7,29.73,SSW,202,5.8,-999.0,92,-99.99,,,0.00,Acu-Link.com,2013-02-04 02:51:00,
2013-02-03 22:07:00,35.6,33.2,29.73,WSW,247,4.2,-999.0,91,-99.99,,,0.00,Acu-Link.com,2013-02-04 03:07:00,
2013-02-03 22:23:00,35.2,32.8,29.72,WNW,292,4.2,-999.0,91,-99.99,,,0.00,Acu-Link.com,2013-02-04 03:23:00,
2013-02-03 22:42:00,35.2,32.8,29.72,NNE,22,9.4,-999.0,91,-99.99,,,0.00,Acu-Link.com,2013-02-04 03:42:00,
2013-02-03 22:58:00,34.9,32.5,29.72,West,270,8.9,-999.0,91,-99.99,,,0.00,Acu-Link.com,2013-02-04 03:58:00,
2013-02-03 23:13:00,34.3,32.2,29.72,WSW,247,3.7,-999.0,92,-99.99,,,0.00,Acu-Link.com,2013-02-04 04:13:00,
2013-02-03 23:28:00,34.2,32.4,29.73,West,270,1.7,-999.0,93,-99.99,,,0.00,Acu-Link.com,2013-02-04 04:28:00,
2013-02-03 23:43:00,33.8,31.7,29.73,West,270,3.7,-999.0,92,-99.99,,,0.00,Acu-Link.com,2013-02-04 04:43:00,
2013-02-03 23:58:00,33.4,31.6,29.73,West,270,1.7,-999.0,93,-99.99,,,0.00,Acu-Link.com,2013-02-04 04:58:00,